Time;durP1;ratioP1;P1;durP2;ratioP2;P2;SDS_P1;SDS_P2;PMS_P1;PMS_P2;Temp;Humidity;BMP_temperature;BMP_pressure;BME280_temperature;BME280_humidity;BME280_pressure;Samples;Min_cycle;Max_cycle;Signal;HPM_P1;HPM_P2
2022/05/04 00:00:46;;;;;;;7.60;4.47;;;8.30;99.90;;;;;;5046379;28;20290;-71
2022/05/04 00:03:13;;;;;;;6.72;4.05;;;8.30;99.90;;;;;;5052237;28;20203;-70
2022/05/04 00:05:40;;;;;;;6.28;4.60;;;8.20;99.90;;;;;;5039589;28;20196;-70
2022/05/04 00:08:09;;;;;;;8.10;5.20;;;8.20;99.90;;;;;;5037549;28;20310;-69
2022/05/04 00:10:36;;;;;;;9.32;5.00;;;8.20;99.90;;;;;;5041952;28;20190;-69
2022/05/04 00:13:03;;;;;;;17.25;4.45;;;8.30;99.90;;;;;;5035035;28;20198;-70
2022/05/04 00:15:30;;;;;;;10.73;4.38;;;8.20;99.90;;;;;;5042697;28;20204;-71
2022/05/04 00:17:57;;;;;;;12.00;4.57;;;8.20;99.90;;;;;;5045087;28;20285;-70
2022/05/04 00:20:24;;;;;;;13.45;5.40;;;8.20;99.90;;;;;;5038938;28;20250;-69
2022/05/04 00:22:51;;;;;;;7.60;5.00;;;8.20;99.90;;;;;;5041173;28;20212;-70
2022/05/04 00:25:19;;;;;;;7.05;4.13;;;8.20;99.90;;;;;;5041961;28;20207;-70
2022/05/04 00:27:46;;;;;;;9.20;5.20;;;8.10;99.90;;;;;;5044124;28;20568;-70
2022/05/04 00:30:13;;;;;;;14.90;5.05;;;8.20;99.90;;;;;;5039025;28;20674;-70
2022/05/04 00:32:41;;;;;;;11.45;4.18;;;8.20;99.90;;;;;;5046138;28;20211;-69
2022/05/04 00:35:09;;;;;;;12.80;4.40;;;8.10;99.90;;;;;;5036044;28;20194;-70
2022/05/04 00:37:36;;;;;;;14.45;5.80;;;8.20;99.90;;;;;;5045338;28;20219;-70
2022/05/04 00:40:04;;;;;;;11.40;6.32;;;8.20;99.90;;;;;;5033104;28;20302;-70
2022/05/04 00:42:32;;;;;;;13.82;4.55;;;8.20;99.90;;;;;;5042023;28;20194;-71
2022/05/04 00:44:59;;;;;;;13.48;4.82;;;8.20;99.90;;;;;;5043541;28;20653;-71
2022/05/04 00:47:26;;;;;;;7.35;4.68;;;8.30;99.90;;;;;;5038386;28;20264;-71
2022/05/04 00:49:53;;;;;;;10.13;6.78;;;8.40;99.90;;;;;;5039339;28;20239;-71
2022/05/04 00:52:20;;;;;;;13.02;6.10;;;8.30;99.90;;;;;;5031006;28;20205;-70
2022/05/04 00:54:51;;;;;;;14.52;6.50;;;8.30;99.90;;;;;;5033023;28;20200;-70
2022/05/04 00:58:54;;;;;;;11.95;5.78;;;8.30;99.90;;;;;;5039400;28;20376;-70
2022/05/04 01:00:11;;;;;;;11.65;6.00;;;8.30;99.90;;;;;;5047785;28;20272;-70
2022/05/04 01:02:39;;;;;;;11.85;6.28;;;8.30;99.90;;;;;;5041809;28;20198;-72
2022/05/04 01:05:09;;;;;;;14.02;6.30;;;8.20;99.90;;;;;;5035503;28;20209;-70
2022/05/04 01:07:37;;;;;;;11.95;5.60;;;8.20;99.90;;;;;;5032351;28;20655;-70
2022/05/04 01:10:05;;;;;;;10.50;5.15;;;8.10;99.90;;;;;;5041272;28;20222;-71
2022/05/04 01:12:32;;;;;;;21.77;5.88;;;8.10;99.90;;;;;;5032977;28;20287;-71
2022/05/04 01:14:59;;;;;;;12.25;6.38;;;8.20;99.90;;;;;;5034069;28;20682;-70
2022/05/04 01:17:28;;;;;;;18.73;6.53;;;8.20;99.90;;;;;;5050342;28;20286;-70
2022/05/04 01:19:55;;;;;;;18.95;6.35;;;8.20;99.90;;;;;;5033289;28;20241;-70
2022/05/04 01:22:24;;;;;;;12.45;7.07;;;8.20;99.90;;;;;;5025918;28;20202;-70
2022/05/04 01:24:52;;;;;;;8.70;6.13;;;8.30;99.90;;;;;;5047854;28;20449;-71
2022/05/04 01:27:19;;;;;;;10.00;6.75;;;8.40;99.90;;;;;;5029107;28;20222;-72
2022/05/04 01:29:47;;;;;;;16.65;6.55;;;8.50;99.90;;;;;;5035275;28;20759;-72
2022/05/04 01:32:15;;;;;;;10.40;6.05;;;8.50;99.90;;;;;;5036433;28;20299;-71
2022/05/04 01:34:41;;;;;;;11.52;5.50;;;8.60;99.90;;;;;;5043000;28;20212;-71
2022/05/04 01:37:08;;;;;;;11.98;6.28;;;8.50;99.90;;;;;;5028455;28;20210;-70
2022/05/04 01:39:37;;;;;;;17.73;7.10;;;8.40;99.90;;;;;;5047045;28;20306;-71
2022/05/04 01:42:05;;;;;;;10.88;6.15;;;8.40;99.90;;;;;;5031041;28;20299;-71
2022/05/04 01:44:33;;;;;;;12.38;5.95;;;8.50;99.90;;;;;;5036585;28;20311;-71
2022/05/04 01:47:00;;;;;;;11.48;7.47;;;8.40;99.90;;;;;;5047414;28;20204;-71
2022/05/04 01:49:27;;;;;;;12.40;5.60;;;8.40;99.90;;;;;;5044527;28;20272;-71
2022/05/04 01:51:54;;;;;;;11.32;6.03;;;8.40;99.90;;;;;;5045112;28;20270;-71
2022/05/04 01:54:21;;;;;;;9.73;6.03;;;8.30;99.90;;;;;;5032916;28;20201;-71
2022/05/04 01:56:49;;;;;;;8.48;5.38;;;8.30;99.90;;;;;;5047536;28;20198;-72
2022/05/04 01:59:16;;;;;;;8.38;5.57;;;8.30;99.90;;;;;;5053187;28;20286;-70
2022/05/04 02:01:50;;;;;;;18.77;6.75;;;8.30;99.90;;;;;;5060330;28;20198;-70
2022/05/04 02:04:19;;;;;;;12.32;6.55;;;8.30;99.90;;;;;;5037292;28;20294;-69
2022/05/04 02:06:47;;;;;;;26.70;7.60;;;8.30;99.90;;;;;;5046320;28;20191;-70
2022/05/04 02:09:24;;;;;;;20.17;7.18;;;8.10;99.90;;;;;;5034912;28;20231;-70
2022/05/04 02:11:52;;;;;;;7.35;5.78;;;8.10;99.90;;;;;;5033669;28;20208;-69
2022/05/04 02:14:19;;;;;;;14.57;6.07;;;8.10;99.90;;;;;;5027417;28;20195;-69
2022/05/04 02:16:47;;;;;;;12.85;7.80;;;8.10;99.90;;;;;;5044258;28;20206;-70
2022/05/04 02:19:14;;;;;;;9.18;6.80;;;8.10;99.90;;;;;;5036649;28;20301;-69
2022/05/04 02:21:41;;;;;;;10.57;5.43;;;8.00;99.90;;;;;;5036406;28;20183;-70
2022/05/04 02:24:09;;;;;;;12.85;6.00;;;8.10;99.90;;;;;;5043782;28;20211;-71
2022/05/04 02:26:36;;;;;;;10.70;5.13;;;8.20;99.90;;;;;;5037187;28;20676;-70
2022/05/04 02:29:04;;;;;;;14.60;5.75;;;8.20;99.90;;;;;;5045855;28;20222;-70
2022/05/04 02:31:37;;;;;;;8.77;5.07;;;8.20;99.90;;;;;;5035778;28;20270;-71
2022/05/04 02:34:04;;;;;;;16.80;5.40;;;8.20;99.90;;;;;;5036228;28;20205;-70
2022/05/04 02:39:16;;;;;;;12.57;6.25;;;8.20;99.90;;;;;;5035281;28;20293;-71
2022/05/04 02:41:42;;;;;;;7.00;4.20;;;8.30;99.90;;;;;;5035029;28;20212;-71
2022/05/04 02:44:11;;;;;;;7.30;4.10;;;8.30;99.90;;;;;;5035120;28;20682;-70
2022/05/04 02:46:38;;;;;;;9.60;5.05;;;8.30;99.90;;;;;;5035605;28;20253;-70
2022/05/04 02:49:05;;;;;;;13.48;5.22;;;8.40;99.90;;;;;;5035000;28;20691;-70
2022/05/04 02:51:32;;;;;;;11.38;5.75;;;8.40;99.90;;;;;;5034692;28;20258;-71
2022/05/04 02:53:59;;;;;;;7.57;3.65;;;8.30;99.90;;;;;;5035580;28;20290;-71
2022/05/04 02:56:25;;;;;;;10.18;4.65;;;8.40;99.90;;;;;;5039483;28;20289;-71
2022/05/04 02:58:53;;;;;;;9.43;5.10;;;8.40;99.90;;;;;;5046709;28;20631;-70
2022/05/04 03:04:07;;;;;;;10.23;5.32;;;8.50;99.90;;;;;;5053397;28;20261;-69
2022/05/04 03:06:35;;;;;;;8.45;4.65;;;8.50;99.90;;;;;;5020915;28;20219;-69
2022/05/04 03:09:02;;;;;;;9.10;4.10;;;8.50;99.90;;;;;;5014931;28;20230;-70
2022/05/04 03:14:14;;;;;;;16.35;4.20;;;8.50;99.90;;;;;;5015183;28;20191;-71
2022/05/04 03:16:42;;;;;;;10.32;4.88;;;8.50;99.90;;;;;;5015027;28;20257;-71
2022/05/04 03:19:09;;;;;;;7.32;4.18;;;8.50;99.90;;;;;;5020517;28;20222;-70
2022/05/04 03:21:36;;;;;;;7.07;4.65;;;8.50;99.90;;;;;;5018778;28;20206;-70
2022/05/04 03:24:03;;;;;;;9.57;4.65;;;8.40;99.90;;;;;;5035760;28;20257;-70
2022/05/04 03:26:30;;;;;;;11.15;5.78;;;8.40;99.90;;;;;;5043321;28;20544;-70
2022/05/04 03:28:57;;;;;;;12.38;5.10;;;8.30;99.90;;;;;;5047059;28;20291;-71
2022/05/04 03:31:24;;;;;;;7.95;4.88;;;8.30;99.90;;;;;;5039398;28;20694;-70
2022/05/04 03:33:52;;;;;;;11.75;5.45;;;8.30;99.90;;;;;;5046824;28;20278;-71
2022/05/04 03:36:19;;;;;;;8.07;4.15;;;8.20;99.90;;;;;;5043408;28;20200;-71
2022/05/04 03:38:46;;;;;;;11.88;5.90;;;8.20;99.90;;;;;;5049965;28;20232;-70
2022/05/04 03:41:14;;;;;;;8.48;4.63;;;8.20;99.90;;;;;;5036350;28;20287;-70
2022/05/04 03:43:41;;;;;;;7.65;4.30;;;8.10;99.90;;;;;;5035419;28;20196;-70
2022/05/04 03:46:15;;;;;;;12.95;5.78;;;8.10;99.90;;;;;;5020678;28;20204;-69
2022/05/04 03:48:43;;;;;;;7.10;4.68;;;8.10;99.90;;;;;;5039885;28;20691;-70
2022/05/04 03:51:13;;;;;;;12.40;5.47;;;8.00;99.90;;;;;;5044784;28;20195;-71
2022/05/04 03:53:42;;;;;;;12.30;5.35;;;8.00;99.90;;;;;;5030494;28;20198;-71
2022/05/04 03:56:09;;;;;;;6.95;5.70;;;8.00;99.90;;;;;;5026405;28;20199;-71
2022/05/04 03:58:37;;;;;;;10.68;5.03;;;7.90;99.90;;;;;;5038363;28;20249;-70
2022/05/04 04:01:04;;;;;;;8.18;5.25;;;8.00;99.90;;;;;;5033440;28;20203;-70
2022/05/04 04:03:31;;;;;;;12.02;5.85;;;8.00;99.90;;;;;;5044745;28;20582;-70
2022/05/04 04:05:58;;;;;;;15.02;6.15;;;8.00;99.90;;;;;;5045164;28;20634;-71
2022/05/04 04:08:26;;;;;;;9.60;5.25;;;8.10;99.90;;;;;;5044723;28;20229;-72
2022/05/04 04:10:53;;;;;;;10.30;4.85;;;8.10;99.90;;;;;;5043826;28;20236;-72
2022/05/04 04:13:20;;;;;;;10.93;5.50;;;8.00;99.90;;;;;;5039386;28;20202;-70
2022/05/04 04:15:51;;;;;;;12.05;6.53;;;8.10;99.90;;;;;;5049622;28;20189;-70
2022/05/04 04:18:18;;;;;;;17.67;8.32;;;8.20;99.90;;;;;;5032348;28;20223;-69
2022/05/04 04:23:45;;;;;;;13.30;5.55;;;8.30;99.90;;;;;;4972163;28;20202;-70
2022/05/04 04:26:13;;;;;;;10.75;5.65;;;8.50;99.90;;;;;;4984385;28;20312;-70
2022/05/04 04:28:41;;;;;;;7.13;4.97;;;8.60;99.90;;;;;;5012453;28;20321;-70
2022/05/04 04:31:09;;;;;;;15.25;5.65;;;8.60;99.90;;;;;;5046141;28;20305;-71
2022/05/04 04:33:36;;;;;;;8.68;5.28;;;8.70;99.90;;;;;;5036864;28;20203;-71
2022/05/04 04:36:04;;;;;;;14.05;5.93;;;8.80;99.90;;;;;;5046852;28;20213;-70
2022/05/04 04:38:31;;;;;;;7.60;5.45;;;8.90;99.90;;;;;;5044666;28;20718;-70
2022/05/04 04:41:00;;;;;;;9.02;5.20;;;9.10;99.90;;;;;;5034771;28;20231;-72
2022/05/04 04:43:27;;;;;;;8.20;5.47;;;9.10;99.90;;;;;;5047866;28;20202;-70
2022/05/04 04:45:55;;;;;;;7.10;4.10;;;9.20;99.90;;;;;;5038687;28;20216;-72
2022/05/04 04:48:22;;;;;;;10.98;5.70;;;9.30;99.90;;;;;;5046860;28;20354;-71
2022/05/04 04:50:50;;;;;;;12.18;5.88;;;9.40;99.90;;;;;;5038412;28;20299;-71
2022/05/04 04:53:17;;;;;;;21.02;7.35;;;9.70;99.90;;;;;;5036543;28;20192;-70
2022/05/04 04:55:45;;;;;;;15.80;5.90;;;10.20;99.90;;;;;;5021436;28;20564;-71
2022/05/04 04:58:15;;;;;;;10.02;5.78;;;10.80;99.90;;;;;;5044512;28;20220;-71
2022/05/04 05:00:42;;;;;;;10.85;4.75;;;11.30;99.90;;;;;;5039985;28;20197;-71
2022/05/04 05:03:09;;;;;;;16.52;5.72;;;12.00;99.90;;;;;;5049323;28;20554;-73
2022/05/04 05:05:40;;;;;;;7.70;5.03;;;12.40;99.90;;;;;;5040387;28;20339;-73
2022/05/04 05:08:07;;;;;;;14.60;4.72;;;12.90;99.90;;;;;;5036142;28;20313;-74
2022/05/04 05:10:35;;;;;;;8.45;4.88;;;13.60;98.40;;;;;;5041593;28;20207;-73
2022/05/04 05:13:02;;;;;;;8.27;4.97;;;14.00;96.70;;;;;;5048151;28;20213;-72
2022/05/04 05:18:15;;;;;;;14.70;5.18;;;15.30;93.10;;;;;;5042104;28;20219;-72
2022/05/04 05:20:42;;;;;;;11.98;4.78;;;15.70;91.30;;;;;;5045689;28;20207;-72
2022/05/04 05:23:09;;;;;;;10.73;5.05;;;15.70;90.00;;;;;;5043763;28;20204;-72
2022/05/04 05:25:36;;;;;;;70.90;13.45;;;15.90;90.10;;;;;;5045517;28;20213;-73
2022/05/04 05:28:03;;;;;;;24.60;6.20;;;16.30;88.80;;;;;;5048772;28;20260;-73
2022/05/04 05:30:32;;;;;;;13.40;4.97;;;17.00;86.60;;;;;;5040863;28;20679;-73
2022/05/04 05:32:58;;;;;;;9.67;4.60;;;17.60;85.30;;;;;;5042078;28;20578;-72
2022/05/04 05:35:25;;;;;;;9.45;4.63;;;17.60;82.10;;;;;;5051978;28;20479;-74
2022/05/04 05:37:52;;;;;;;7.90;4.15;;;17.20;82.70;;;;;;5035103;28;20489;-74
2022/05/04 05:40:19;;;;;;;11.05;5.40;;;16.60;83.90;;;;;;5027085;28;20279;-72
2022/05/04 05:42:47;;;;;;;15.27;6.30;;;15.70;85.10;;;;;;5047051;28;20192;-74
2022/05/04 05:45:14;;;;;;;9.38;4.80;;;15.20;88.20;;;;;;5041163;28;20221;-72
2022/05/04 05:47:42;;;;;;;12.70;5.43;;;14.60;90.30;;;;;;5037024;28;20207;-75
2022/05/04 05:50:11;;;;;;;9.63;4.18;;;14.20;90.90;;;;;;5040493;28;20227;-73
2022/05/04 05:52:38;;;;;;;10.25;4.88;;;14.10;92.00;;;;;;5045429;28;20218;-73
2022/05/04 05:55:06;;;;;;;13.30;5.95;;;14.30;91.90;;;;;;5036785;28;20212;-72
2022/05/04 05:57:33;;;;;;;14.15;5.10;;;14.40;91.30;;;;;;5036202;28;20281;-73
2022/05/04 06:00:00;;;;;;;9.20;5.22;;;14.20;91.00;;;;;;5042466;28;20290;-73
2022/05/04 06:02:28;;;;;;;7.40;4.82;;;13.90;91.10;;;;;;5040204;28;20217;-73
2022/05/04 06:04:57;;;;;;;15.02;5.90;;;13.50;92.00;;;;;;5049045;28;20205;-71
2022/05/04 06:07:26;;;;;;;13.60;6.15;;;13.10;92.90;;;;;;5036043;28;20558;-72
2022/05/04 06:09:53;;;;;;;10.70;4.25;;;13.00;93.70;;;;;;5048946;28;20664;-73
2022/05/04 06:12:20;;;;;;;9.02;3.58;;;12.80;93.80;;;;;;5046096;28;20260;-73
2022/05/04 06:14:47;;;;;;;8.10;4.63;;;12.80;94.30;;;;;;5052240;28;20370;-73
2022/05/04 06:17:14;;;;;;;10.48;3.55;;;12.70;94.00;;;;;;5046793;28;20217;-72
2022/05/04 06:19:41;;;;;;;10.45;4.32;;;12.80;94.40;;;;;;5057561;28;20248;-71
2022/05/04 06:22:10;;;;;;;11.48;3.85;;;12.70;93.60;;;;;;5053646;28;20193;-71
2022/05/04 06:24:37;;;;;;;7.00;3.58;;;12.70;93.80;;;;;;5038519;28;20598;-71
2022/05/04 06:27:04;;;;;;;8.27;3.75;;;12.70;93.30;;;;;;5053604;28;20223;-72
2022/05/04 06:35:05;;;;;;;7.03;3.92;;;12.90;92.90;;;;;;5034713;28;20632;-74
2022/05/04 06:37:33;;;;;;;9.60;3.50;;;13.90;92.80;;;;;;5047256;28;20273;-74
2022/05/04 06:40:00;;;;;;;9.75;3.38;;;15.50;89.20;;;;;;5034337;28;20328;-74
2022/05/04 06:42:27;;;;;;;8.18;3.90;;;17.00;84.80;;;;;;5035092;28;20563;-73
2022/05/04 06:44:54;;;;;;;6.17;2.97;;;17.80;79.60;;;;;;5035212;28;20283;-73
2022/05/04 06:47:21;;;;;;;5.57;3.00;;;19.00;76.00;;;;;;5037637;28;20469;-74
2022/05/04 06:49:48;;;;;;;9.97;3.30;;;19.50;72.50;;;;;;5047203;28;20948;-74
2022/05/04 06:52:15;;;;;;;10.80;3.63;;;20.20;70.70;;;;;;5042367;28;20509;-74
2022/05/04 06:54:43;;;;;;;10.63;2.93;;;20.40;68.60;;;;;;5040391;28;20441;-74
2022/05/04 06:57:10;;;;;;;5.97;2.40;;;20.40;67.80;;;;;;5046014;28;20448;-74
2022/05/04 06:59:37;;;;;;;5.77;2.77;;;19.40;67.40;;;;;;5040592;28;20497;-73
2022/05/04 07:02:04;;;;;;;6.93;2.67;;;18.50;69.20;;;;;;5041686;28;20436;-74
2022/05/04 07:04:31;;;;;;;5.63;3.67;;;17.90;72.20;;;;;;5023048;28;20451;-74
2022/05/04 07:06:59;;;;;;;9.00;3.70;;;17.40;72.80;;;;;;5033666;28;20481;-74
2022/05/04 07:09:25;;;;;;;13.65;4.25;;;16.70;73.80;;;;;;5030857;28;20231;-75
2022/05/04 07:11:54;;;;;;;7.70;4.00;;;16.40;76.20;;;;;;5032512;28;20712;-74
2022/05/04 07:14:21;;;;;;;6.20;2.97;;;15.90;76.70;;;;;;5032481;28;20353;-72
2022/05/04 07:16:48;;;;;;;10.15;5.05;;;15.50;78.10;;;;;;5034487;28;20702;-73
2022/05/04 07:19:16;;;;;;;9.77;4.15;;;15.80;78.30;;;;;;5028355;28;20233;-73
2022/05/04 07:21:42;;;;;;;4.25;3.20;;;15.80;78.00;;;;;;5021528;28;20254;-73
2022/05/04 07:24:11;;;;;;;7.20;4.18;;;15.90;78.20;;;;;;5023948;28;20299;-72
2022/05/04 07:26:37;;;;;;;12.88;4.13;;;15.80;78.10;;;;;;5022299;28;20208;-74
2022/05/04 07:29:06;;;;;;;6.65;3.00;;;16.00;79.20;;;;;;5043694;28;20228;-74
2022/05/04 07:31:33;;;;;;;8.55;3.78;;;16.40;78.30;;;;;;5049661;28;20553;-74
2022/05/04 07:34:00;;;;;;;9.45;4.80;;;16.40;77.50;;;;;;5041713;28;20288;-73
2022/05/04 07:36:28;;;;;;;9.88;3.78;;;16.70;77.80;;;;;;5049398;28;20208;-75
2022/05/04 07:38:55;;;;;;;12.13;3.65;;;16.70;77.40;;;;;;5032850;28;20225;-73
2022/05/04 07:44:08;;;;;;;8.53;3.57;;;16.70;76.60;;;;;;5033314;28;20278;-73
2022/05/04 07:46:35;;;;;;;8.73;3.27;;;16.80;77.30;;;;;;5031794;28;20474;-75
2022/05/04 07:49:02;;;;;;;6.23;2.30;;;17.60;76.70;;;;;;5032485;28;20476;-74
2022/05/04 07:51:29;;;;;;;10.80;4.67;;;18.30;75.30;;;;;;5033253;28;20949;-74
2022/05/04 07:53:56;;;;;;;8.73;3.53;;;19.00;73.30;;;;;;5043198;28;20972;-73
2022/05/04 07:56:23;;;;;;;12.43;3.27;;;19.70;70.70;;;;;;5049985;28;20523;-74
2022/05/04 07:58:50;;;;;;;5.03;2.80;;;20.60;68.40;;;;;;5052304;28;20543;-74
2022/05/04 08:04:21;;;;;;;8.77;3.67;;;21.40;65.70;;;;;;5062170;28;20475;-74
2022/05/04 08:06:48;;;;;;;6.07;3.40;;;21.20;64.30;;;;;;5039212;28;20515;-74
2022/05/04 08:09:15;;;;;;;6.17;3.10;;;21.80;64.80;;;;;;5032022;28;20477;-74
2022/05/04 08:11:43;;;;;;;5.83;2.13;;;22.20;63.30;;;;;;5033204;28;20941;-74
2022/05/04 08:14:10;;;;;;;5.83;2.50;;;21.90;61.00;;;;;;5042178;28;20445;-74
2022/05/04 08:16:39;;;;;;;6.53;2.87;;;21.60;61.50;;;;;;5049686;28;20961;-73
2022/05/04 08:19:07;;;;;;;6.93;3.47;;;21.40;61.90;;;;;;5014061;28;20462;-73
2022/05/04 08:21:34;;;;;;;9.40;2.80;;;20.60;62.90;;;;;;5046483;28;20443;-75
2022/05/04 08:24:01;;;;;;;9.87;3.97;;;20.40;64.10;;;;;;5018753;28;20440;-74
2022/05/04 08:26:28;;;;;;;8.10;3.67;;;19.70;64.20;;;;;;5043890;28;20486;-74
2022/05/04 08:28:55;;;;;;;7.97;3.10;;;19.00;67.00;;;;;;5044594;28;20471;-75
2022/05/04 08:31:22;;;;;;;4.03;2.23;;;19.50;67.20;;;;;;5044371;28;20927;-74
2022/05/04 08:33:51;;;;;;;9.60;3.27;;;20.50;65.30;;;;;;5043773;28;20529;-73
2022/05/04 08:36:18;;;;;;;9.50;2.80;;;21.60;62.80;;;;;;5041623;28;20468;-74
2022/05/04 08:38:45;;;;;;;5.40;2.73;;;21.90;61.60;;;;;;5042456;28;20815;-75
2022/05/04 08:41:12;;;;;;;4.50;2.43;;;22.50;61.20;;;;;;5033340;28;21004;-73
2022/05/04 08:43:40;;;;;;;5.20;2.27;;;22.90;59.20;;;;;;5032483;28;20470;-74
2022/05/04 08:46:11;;;;;;;4.60;2.47;;;22.60;59.40;;;;;;5032775;28;20462;-73
2022/05/04 08:48:45;;;;;;;7.40;2.77;;;22.80;59.40;;;;;;5033745;28;20973;-74
2022/05/04 08:51:13;;;;;;;5.47;3.10;;;23.50;59.60;;;;;;5032485;28;20443;-74
2022/05/04 08:53:42;;;;;;;6.17;2.60;;;24.10;57.40;;;;;;5030420;28;20446;-74
2022/05/04 08:56:09;;;;;;;5.83;3.27;;;24.50;56.30;;;;;;5031787;28;20438;-74
2022/05/04 08:58:37;;;;;;;4.70;3.67;;;24.50;56.80;;;;;;5031071;28;20459;-75
2022/05/04 09:01:04;;;;;;;6.63;3.97;;;24.60;56.80;;;;;;5036854;28;20437;-73
2022/05/04 09:03:33;;;;;;;7.53;3.33;;;24.50;56.00;;;;;;5032465;28;20489;-75
2022/05/04 09:06:00;;;;;;;8.53;4.13;;;23.70;56.20;;;;;;5023229;28;20570;-74
2022/05/04 09:08:28;;;;;;;6.00;3.40;;;23.00;57.60;;;;;;5051745;28;20468;-74
2022/05/04 09:10:55;;;;;;;3.70;2.20;;;23.10;57.40;;;;;;5033467;28;20448;-75
2022/05/04 09:13:22;;;;;;;8.80;4.20;;;23.40;56.90;;;;;;5022480;28;20454;-75
2022/05/04 09:15:51;;;;;;;9.23;4.30;;;23.60;57.40;;;;;;5032649;28;20442;-74
2022/05/04 09:18:19;;;;;;;8.53;4.53;;;23.60;57.10;;;;;;5033186;28;20477;-75
2022/05/04 09:20:48;;;;;;;6.00;3.80;;;23.30;57.40;;;;;;5017722;28;20467;-74
2022/05/04 09:23:19;;;;;;;8.20;4.60;;;23.40;57.80;;;;;;5040495;28;20788;-75
2022/05/04 09:25:50;;;;;;;7.23;3.67;;;22.90;57.50;;;;;;5042131;28;20446;-74
2022/05/04 09:28:17;;;;;;;7.90;4.10;;;23.00;58.10;;;;;;5041624;28;20460;-75
2022/05/04 09:30:47;;;;;;;8.00;3.47;;;23.40;58.40;;;;;;5043546;28;20450;-75
2022/05/04 09:33:18;;;;;;;8.23;3.27;;;23.00;57.90;;;;;;5036851;28;20561;-74
2022/05/04 09:35:45;;;;;;;8.13;3.73;;;22.50;57.80;;;;;;5034612;28;20484;-74
2022/05/04 09:46:43;;;;;;;14.70;5.13;;;21.40;61.00;;;;;;5031113;28;20469;-74
2022/05/04 09:49:11;;;;;;;5.27;4.27;;;21.50;60.20;;;;;;5048345;28;20585;-73
2022/05/04 09:51:40;;;;;;;6.23;4.30;;;21.40;60.60;;;;;;5049612;28;20529;-74
2022/05/04 09:54:18;;;;;;;8.40;3.50;;;21.70;60.40;;;;;;5050420;28;20446;-75
2022/05/04 09:56:49;;;;;;;8.50;4.07;;;22.00;61.20;;;;;;5044134;28;20451;-75
2022/05/04 09:59:17;;;;;;;12.90;4.30;;;21.90;60.30;;;;;;5047524;28;20468;-73
2022/05/04 10:01:45;;;;;;;11.00;4.50;;;21.60;60.20;;;;;;5038198;28;20468;-73
2022/05/04 10:04:12;;;;;;;7.87;4.37;;;21.60;61.10;;;;;;5044955;28;20835;-75
2022/05/04 10:06:40;;;;;;;6.60;3.67;;;21.70;60.80;;;;;;5032424;28;20508;-73
2022/05/04 10:09:07;;;;;;;5.83;3.97;;;22.00;60.40;;;;;;5035453;28;20546;-72
2022/05/04 10:11:35;;;;;;;6.33;4.20;;;22.30;59.70;;;;;;5040367;28;20881;-74
2022/05/04 10:14:05;;;;;;;5.57;5.07;;;22.20;59.40;;;;;;5035818;28;20518;-75
2022/05/04 10:16:38;;;;;;;11.87;5.03;;;22.80;60.00;;;;;;5041290;28;20533;-73
2022/05/04 10:19:09;;;;;;;9.33;3.90;;;23.00;59.40;;;;;;5028321;28;20463;-74
2022/05/04 10:21:39;;;;;;;6.00;4.60;;;23.00;59.50;;;;;;5035329;28;20448;-74
2022/05/04 10:24:08;;;;;;;7.17;4.83;;;22.20;59.30;;;;;;5037572;28;20446;-74
2022/05/04 10:26:36;;;;;;;9.37;5.00;;;21.50;60.20;;;;;;5048436;28;20521;-74
2022/05/04 10:32:00;;;;;;;7.67;4.50;;;20.80;61.40;;;;;;5165630;27;20571;-74
2022/05/04 10:34:27;;;;;;;7.77;4.67;;;18.80;66.00;;;;;;5167938;27;20519;-73
2022/05/04 10:36:54;;;;;;;11.27;5.73;;;18.60;66.60;;;;;;5167069;27;20444;-73
2022/05/04 10:39:22;;;;;;;7.88;5.32;;;18.40;67.90;;;;;;5156825;27;20484;-75
2022/05/04 10:41:50;;;;;;;16.60;5.63;;;18.70;69.00;;;;;;5141034;27;20197;-75
2022/05/04 10:44:18;;;;;;;10.07;5.23;;;19.20;68.50;;;;;;5146114;27;20442;-74
2022/05/04 10:46:49;;;;;;;13.80;5.40;;;19.30;67.70;;;;;;5132006;27;20537;-73
2022/05/04 10:49:17;;;;;;;11.13;4.23;;;19.10;67.70;;;;;;5148251;27;20956;-73
2022/05/04 10:51:47;;;;;;;7.67;4.97;;;19.30;68.10;;;;;;5128525;28;20529;-74
2022/05/04 10:54:17;;;;;;;10.33;5.50;;;19.20;67.70;;;;;;5142163;27;20438;-74
2022/05/04 10:56:46;;;;;;;7.90;5.30;;;18.90;68.00;;;;;;5150421;27;20471;-73
2022/05/04 10:59:24;;;;;;;10.03;6.27;;;18.80;69.60;;;;;;5139283;27;20549;-74
2022/05/04 11:01:51;;;;;;;11.43;5.00;;;18.60;69.10;;;;;;5129790;27;20812;-73
2022/05/04 11:04:24;;;;;;;10.63;5.47;;;18.50;70.60;;;;;;5130490;27;20916;-72
2022/05/04 11:06:56;;;;;;;11.13;5.43;;;18.70;69.80;;;;;;5145233;27;20513;-73
2022/05/04 11:09:25;;;;;;;11.57;5.33;;;18.80;69.30;;;;;;5144418;27;20496;-71
2022/05/04 11:11:54;;;;;;;9.97;5.30;;;18.90;69.80;;;;;;5144396;27;20477;-73
2022/05/04 11:14:22;;;;;;;5.37;4.30;;;19.20;69.00;;;;;;5139058;27;20912;-71
2022/05/04 11:16:51;;;;;;;10.53;5.23;;;19.00;69.50;;;;;;5138373;27;20466;-71
2022/05/04 11:19:19;;;;;;;5.70;4.80;;;19.30;69.40;;;;;;5161217;27;20454;-72
2022/05/04 11:21:47;;;;;;;7.70;4.63;;;19.20;69.60;;;;;;5161993;27;20498;-73
2022/05/04 11:24:16;;;;;;;6.93;5.40;;;19.20;68.80;;;;;;5165395;27;20483;-71
2022/05/04 11:26:44;;;;;;;9.80;5.50;;;18.80;69.90;;;;;;5167070;27;20442;-71
2022/05/04 11:29:13;;;;;;;8.40;5.37;;;18.30;69.40;;;;;;5152557;27;20476;-68
2022/05/04 11:31:44;;;;;;;7.77;5.20;;;18.10;71.60;;;;;;5144665;28;20509;-72
2022/05/04 11:34:15;;;;;;;10.20;5.63;;;18.50;71.00;;;;;;5143224;27;20487;-72
2022/05/04 11:36:45;;;;;;;9.43;5.30;;;18.70;70.70;;;;;;5134464;27;20912;-70
2022/05/04 11:39:15;;;;;;;6.77;5.00;;;18.50;70.50;;;;;;5141028;27;20470;-72
2022/05/04 11:41:44;;;;;;;8.80;5.80;;;18.70;70.60;;;;;;5132928;27;20439;-70
2022/05/04 11:44:12;;;;;;;11.50;6.33;;;19.00;69.70;;;;;;5134633;27;20434;-73
2022/05/04 11:46:39;;;;;;;6.77;5.17;;;19.30;70.00;;;;;;5125871;27;20445;-70
2022/05/04 11:49:08;;;;;;;9.70;6.27;;;19.40;70.00;;;;;;5132236;27;20470;-71
2022/05/04 11:51:36;;;;;;;8.77;5.27;;;19.40;69.40;;;;;;5121865;27;20492;-72
2022/05/04 11:54:03;;;;;;;10.37;5.00;;;18.90;68.50;;;;;;5130396;27;20478;-69
2022/05/04 11:56:31;;;;;;;7.40;5.63;;;18.80;70.90;;;;;;5126352;27;20495;-71
2022/05/04 11:58:58;;;;;;;9.80;5.27;;;18.90;69.50;;;;;;5125187;27;20465;-71
2022/05/04 12:01:26;;;;;;;8.27;5.73;;;18.90;69.70;;;;;;5130937;27;20434;-71
2022/05/04 12:03:53;;;;;;;9.80;6.43;;;18.80;69.50;;;;;;5135275;27;20470;-72
2022/05/04 12:06:21;;;;;;;10.30;5.77;;;18.70;70.10;;;;;;5123667;27;20916;-71
2022/05/04 12:08:49;;;;;;;11.87;6.20;;;18.80;71.30;;;;;;5126614;27;20462;-70
2022/05/04 12:11:17;;;;;;;15.73;5.87;;;18.90;70.10;;;;;;5129964;27;20493;-71
2022/05/04 12:13:47;;;;;;;12.87;4.97;;;19.00;69.80;;;;;;5132992;27;20443;-73
2022/05/04 12:16:14;;;;;;;6.40;4.80;;;18.90;70.10;;;;;;5127776;27;20451;-71
2022/05/04 12:18:42;;;;;;;6.43;5.03;;;18.70;69.80;;;;;;5121584;27;20479;-71
2022/05/04 12:21:10;;;;;;;12.77;5.57;;;18.80;70.80;;;;;;5125715;27;20520;-72
2022/05/04 12:23:40;;;;;;;16.50;7.30;;;18.70;70.00;;;;;;5127003;27;20439;-71
2022/05/04 12:26:08;;;;;;;8.83;5.57;;;18.20;71.00;;;;;;5131950;27;20439;-71
2022/05/04 12:28:35;;;;;;;8.57;6.27;;;18.30;71.40;;;;;;5125482;27;20453;-74
2022/05/04 12:33:49;;;;;;;11.53;5.43;;;18.70;70.90;;;;;;5119385;27;20438;-71
2022/05/04 12:36:18;;;;;;;8.13;5.00;;;18.80;70.60;;;;;;5130747;27;20454;-70
2022/05/04 12:38:48;;;;;;;9.27;6.10;;;18.80;70.40;;;;;;5129530;27;21021;-73
2022/05/04 12:41:18;;;;;;;10.50;5.47;;;18.50;70.90;;;;;;5118266;27;20474;-70
2022/05/04 12:43:46;;;;;;;12.40;6.20;;;18.10;70.60;;;;;;5127981;27;20458;-72
2022/05/04 12:46:16;;;;;;;16.13;7.60;;;18.00;71.40;;;;;;5127355;27;20458;-72
2022/05/04 12:48:45;;;;;;;10.50;6.67;;;17.90;72.40;;;;;;5131725;27;20990;-71
2022/05/04 12:51:13;;;;;;;9.93;6.10;;;17.80;72.20;;;;;;5124588;27;20474;-72
2022/05/04 12:53:40;;;;;;;13.73;7.30;;;17.80;72.00;;;;;;5125434;27;20449;-72
2022/05/04 12:58:54;;;;;;;9.63;6.00;;;17.80;72.30;;;;;;5123099;27;20458;-72
2022/05/04 13:01:24;;;;;;;11.97;5.90;;;18.20;72.20;;;;;;5120364;27;20449;-72
2022/05/04 13:03:52;;;;;;;9.03;5.90;;;17.90;72.00;;;;;;5130982;27;20956;-71
2022/05/04 13:06:19;;;;;;;10.27;7.00;;;17.60;72.20;;;;;;5119910;27;20494;-74
2022/05/04 13:08:48;;;;;;;10.98;8.15;;;17.40;72.50;;;;;;5129455;27;20315;-73
2022/05/04 13:11:15;;;;;;;10.27;6.25;;;17.40;73.20;;;;;;5125975;27;20220;-71
2022/05/04 13:13:43;;;;;;;7.65;6.38;;;17.40;73.40;;;;;;5126838;27;20206;-72
2022/05/04 13:16:10;;;;;;;6.70;5.43;;;17.50;73.40;;;;;;5132095;27;20306;-71
2022/05/04 13:18:39;;;;;;;7.10;4.97;;;17.60;73.00;;;;;;5123597;27;20472;-71
2022/05/04 13:21:06;;;;;;;8.63;6.73;;;17.80;72.90;;;;;;5123645;27;20445;-73
2022/05/04 13:23:33;;;;;;;7.67;5.47;;;17.80;72.60;;;;;;5125997;27;20526;-73
2022/05/04 13:26:01;;;;;;;12.00;6.37;;;17.80;72.90;;;;;;5130431;27;20496;-74
2022/05/04 13:28:28;;;;;;;10.30;6.33;;;17.90;72.90;;;;;;5124613;27;20667;-73
2022/05/04 13:30:56;;;;;;;9.83;5.93;;;18.00;72.50;;;;;;5127167;27;20485;-72